createdAt,value
2018-12-24T00:00:26.265Z,5.68
2018-12-24T00:03:00.037Z,5.49
2018-12-24T00:05:32.175Z,5.38
2018-12-24T00:08:04.345Z,5.36
2018-12-24T00:10:36.485Z,5.29
2018-12-24T00:13:08.599Z,5.23
2018-12-24T00:15:40.711Z,5.23
2018-12-24T00:18:12.857Z,5.28
2018-12-24T00:20:44.955Z,5.24
2018-12-24T00:23:17.054Z,5.29
2018-12-24T00:25:49.147Z,5.25
2018-12-24T00:28:21.268Z,5.20
2018-12-24T00:30:53.385Z,5.14
2018-12-24T00:33:25.467Z,5.00
2018-12-24T00:35:57.590Z,4.83
2018-12-24T00:38:29.679Z,4.81
2018-12-24T00:41:01.799Z,4.69
2018-12-24T00:43:33.913Z,4.67
2018-12-24T00:46:06.050Z,4.51
2018-12-24T00:48:38.251Z,4.50
2018-12-24T00:51:10.347Z,4.52
2018-12-24T00:53:42.440Z,4.40
2018-12-24T00:56:14.634Z,4.58
2018-12-24T00:58:46.814Z,4.51
2018-12-24T01:01:18.911Z,4.47
2018-12-24T01:03:51.041Z,4.51
2018-12-24T01:06:23.136Z,4.48
2018-12-24T01:08:55.299Z,4.42
2018-12-24T01:11:27.473Z,4.28
2018-12-24T01:13:59.576Z,4.13
2018-12-24T01:16:31.675Z,4.17
2018-12-24T01:19:03.797Z,3.97
2018-12-24T01:21:36.064Z,4.02
2018-12-24T01:24:08.278Z,4.01
2018-12-24T01:26:40.382Z,3.94
2018-12-24T01:29:12.508Z,4.00
2018-12-24T01:31:44.600Z,4.00
2018-12-24T01:34:16.719Z,3.86
2018-12-24T01:36:48.818Z,3.90
2018-12-24T01:39:20.974Z,3.84
2018-12-24T01:41:53.086Z,3.87
2018-12-24T01:44:25.186Z,3.84
2018-12-24T01:46:57.284Z,3.94
2018-12-24T01:49:29.406Z,3.73
2018-12-24T01:52:01.472Z,3.69
2018-12-24T01:54:33.579Z,3.78
2018-12-24T01:57:05.837Z,3.64
2018-12-24T01:59:37.984Z,3.66
2018-12-24T02:02:10.097Z,3.68
2018-12-24T02:04:42.202Z,3.66
2018-12-24T02:07:14.408Z,3.69
2018-12-24T02:09:46.539Z,3.66
2018-12-24T02:12:18.702Z,3.55
2018-12-24T02:14:50.804Z,3.52
2018-12-24T02:17:23.029Z,3.70
2018-12-24T02:19:55.153Z,3.52
2018-12-24T02:22:27.318Z,3.54
2018-12-24T02:24:59.425Z,3.30
2018-12-24T02:27:31.514Z,3.40
2018-12-24T02:30:03.690Z,3.46
2018-12-24T02:32:36.169Z,3.29
2018-12-24T02:35:08.346Z,3.25
2018-12-24T02:37:40.487Z,3.23
2018-12-24T02:40:12.599Z,3.15
2018-12-24T02:42:52.253Z,3.23
2018-12-24T02:45:18.586Z,3.22
2018-12-24T02:47:50.786Z,3.09
2018-12-24T02:50:22.915Z,3.06
2018-12-24T02:52:55.031Z,3.02
2018-12-24T02:55:27.139Z,3.05
2018-12-24T02:57:59.288Z,3.06
2018-12-24T03:00:31.381Z,3.14
2018-12-24T03:03:03.623Z,3.04
2018-12-24T03:05:35.831Z,3.14
2018-12-24T03:08:07.951Z,2.99
2018-12-24T03:10:40.084Z,2.98
2018-12-24T03:13:12.210Z,2.93
2018-12-24T03:15:44.374Z,2.96
2018-12-24T03:18:16.473Z,2.96
2018-12-24T03:20:48.575Z,2.90
2018-12-24T03:23:20.707Z,2.80
2018-12-24T03:25:53.583Z,2.94
2018-12-24T03:28:25.757Z,2.83
2018-12-24T03:30:57.965Z,2.75
2018-12-24T03:33:30.142Z,2.71
2018-12-24T03:36:02.258Z,2.88
2018-12-24T03:38:35.505Z,2.83
2018-12-24T03:41:07.655Z,2.70
2018-12-24T03:43:39.908Z,2.65
2018-12-24T03:46:12.015Z,2.65
2018-12-24T03:48:44.118Z,2.64
2018-12-24T03:51:16.485Z,2.55
2018-12-24T03:53:49.053Z,2.61
2018-12-24T03:56:21.274Z,2.66
2018-12-24T03:58:53.440Z,2.56
2018-12-24T04:01:25.534Z,2.57
2018-12-24T04:03:57.673Z,2.65
2018-12-24T04:06:29.789Z,2.71
2018-12-24T04:09:01.921Z,2.76
2018-12-24T04:11:35.206Z,2.63
2018-12-24T04:14:07.430Z,2.73
2018-12-24T04:16:39.577Z,2.69
2018-12-24T04:19:11.688Z,2.66
2018-12-24T04:21:44.001Z,2.77
2018-12-24T04:24:16.322Z,2.69
2018-12-24T04:26:48.421Z,2.55
2018-12-24T04:29:21.379Z,2.64
2018-12-24T04:31:53.521Z,2.55
2018-12-24T04:34:25.711Z,2.67
2018-12-24T04:36:57.828Z,2.67
2018-12-24T04:39:29.927Z,2.54
2018-12-24T04:42:02.110Z,2.55
2018-12-24T04:44:34.291Z,2.66
2018-12-24T04:47:06.488Z,2.71
2018-12-24T04:49:38.788Z,2.62
2018-12-24T04:52:10.906Z,2.62
2018-12-24T04:54:44.129Z,2.59
2018-12-24T04:57:16.225Z,2.64
2018-12-24T04:59:48.376Z,2.71
2018-12-24T05:02:20.492Z,2.71
2018-12-24T05:04:52.639Z,2.64
2018-12-24T05:07:24.786Z,2.62
2018-12-24T05:09:56.915Z,2.71
2018-12-24T05:12:29.045Z,2.64
2018-12-24T05:15:01.178Z,2.69
2018-12-24T05:17:33.369Z,2.64
2018-12-24T05:20:05.649Z,2.71
2018-12-24T05:22:37.839Z,2.72
2018-12-24T05:25:10.028Z,2.70
2018-12-24T05:27:42.159Z,2.65
2018-12-24T05:30:14.284Z,2.70
2018-12-24T05:32:46.492Z,2.65
2018-12-24T05:35:18.603Z,2.65
2018-12-24T05:37:50.709Z,2.71
2018-12-24T05:40:22.805Z,2.66
2018-12-24T05:42:54.948Z,2.73
2018-12-24T05:45:27.053Z,2.61
2018-12-24T05:47:59.171Z,2.60
2018-12-24T05:50:31.291Z,2.65
2018-12-24T05:53:03.539Z,2.50
2018-12-24T05:55:35.699Z,2.54
2018-12-24T05:58:07.859Z,2.55
2018-12-24T06:00:40.101Z,2.47
2018-12-24T06:03:12.198Z,2.44
2018-12-24T06:05:44.298Z,2.24
2018-12-24T06:08:21.429Z,2.26
2018-12-24T06:10:53.853Z,2.18
2018-12-24T06:13:25.984Z,2.34
2018-12-24T06:15:58.098Z,2.19
2018-12-24T06:18:30.321Z,2.26
2018-12-24T06:21:02.418Z,2.22
2018-12-24T06:23:34.590Z,2.18
2018-12-24T06:26:06.863Z,2.24
2018-12-24T06:28:39.051Z,2.11
2018-12-24T06:31:12.297Z,2.16
2018-12-24T06:33:44.437Z,2.13
2018-12-24T06:36:16.766Z,2.14
2018-12-24T06:38:48.884Z,2.13
2018-12-24T06:41:21.087Z,2.11
2018-12-24T06:43:53.187Z,2.18
2018-12-24T06:46:25.328Z,2.19
2018-12-24T06:48:57.513Z,2.22
2018-12-24T06:51:29.762Z,2.20
2018-12-24T06:54:01.989Z,2.26
2018-12-24T06:56:34.161Z,2.24
2018-12-24T06:59:06.338Z,2.11
2018-12-24T07:01:38.579Z,2.09
2018-12-24T07:04:10.826Z,1.94
2018-12-24T07:06:42.966Z,1.89
2018-12-24T07:09:15.823Z,1.88
2018-12-24T07:15:09.359Z,2.58
2018-12-24T07:17:43.216Z,2.27
2018-12-24T07:20:15.370Z,2.19
2018-12-24T07:22:50.401Z,1.92
2018-12-24T07:25:28.624Z,2.01
2018-12-24T07:28:06.815Z,2.25
2018-12-24T07:30:39.023Z,2.09
2018-12-24T07:33:12.184Z,1.91
2018-12-24T07:35:44.787Z,1.81
2018-12-24T07:38:17.249Z,1.87
2018-12-24T07:40:50.989Z,1.93
2018-12-24T07:43:23.233Z,2.04
2018-12-24T07:45:55.442Z,1.98
2018-12-24T07:48:27.767Z,1.95
2018-12-24T07:51:03.436Z,2.13
2018-12-24T07:53:36.793Z,2.12
2018-12-24T07:56:08.927Z,2.01
2018-12-24T07:58:41.397Z,2.05
2018-12-24T08:01:16.590Z,1.97
2018-12-24T08:03:48.797Z,1.91
2018-12-24T08:06:21.360Z,1.92
2018-12-24T08:08:53.670Z,1.69
2018-12-24T08:11:26.781Z,1.74
2018-12-24T08:14:10.232Z,1.74
2018-12-24T08:16:43.077Z,1.76
2018-12-24T08:19:15.348Z,1.83
2018-12-24T08:21:48.866Z,1.70
2018-12-24T08:24:21.198Z,1.82
2018-12-24T08:26:56.823Z,1.74
2018-12-24T08:29:29.010Z,1.82
2018-12-24T08:32:01.308Z,1.65
2018-12-24T08:34:33.664Z,1.64
2018-12-24T08:37:08.823Z,1.78
2018-12-24T08:39:41.179Z,1.65
2018-12-24T08:42:15.150Z,1.60
2018-12-24T08:48:19.308Z,1.62
2018-12-24T08:52:05.496Z,1.53
2018-12-24T08:54:17.934Z,1.74
2018-12-24T08:56:50.207Z,1.64
2018-12-24T08:59:22.421Z,1.64
2018-12-24T09:01:54.523Z,1.61
2018-12-24T09:04:26.696Z,1.60
2018-12-24T09:06:58.838Z,1.45
2018-12-24T09:09:31.173Z,1.52
2018-12-24T09:12:03.291Z,1.53
2018-12-24T09:14:35.558Z,1.51
2018-12-24T09:17:08.368Z,1.45
2018-12-24T09:19:40.705Z,1.47
2018-12-24T09:22:12.882Z,1.48
2018-12-24T09:24:45.111Z,1.54
2018-12-24T09:27:17.368Z,1.70
2018-12-24T09:29:49.617Z,1.48
2018-12-24T09:32:21.848Z,1.35
2018-12-24T09:34:54.080Z,1.30
2018-12-24T09:37:26.314Z,1.30
2018-12-24T09:39:58.700Z,1.17
2018-12-24T09:42:31.034Z,1.21
2018-12-24T09:45:03.187Z,1.24
2018-12-24T09:47:36.780Z,1.21
2018-12-24T09:50:09.252Z,1.26
2018-12-24T09:52:41.521Z,1.20
2018-12-24T09:59:44.153Z,1.36
2018-12-24T10:06:34.304Z,1.30
2018-12-24T10:07:02.535Z,1.29
2018-12-24T10:09:16.333Z,1.28
2018-12-24T10:11:53.719Z,1.43
2018-12-24T10:14:32.007Z,1.43
2018-12-24T10:17:09.373Z,1.40
2018-12-24T10:19:48.463Z,1.49
2018-12-24T10:22:29.791Z,1.45
2018-12-24T10:25:02.077Z,1.70
2018-12-24T10:27:37.815Z,1.52
2018-12-24T10:30:11.002Z,1.50
2018-12-24T10:32:43.078Z,1.81
2018-12-24T10:35:15.425Z,1.66
2018-12-24T10:38:50.361Z,1.73
2018-12-24T10:41:29.709Z,1.67
2018-12-24T10:44:02.088Z,1.68
2018-12-24T10:46:34.334Z,1.96
2018-12-24T10:49:08.686Z,2.46
2018-12-24T10:51:41.073Z,3.79
2018-12-24T10:54:14.446Z,2.62
2018-12-24T10:56:46.648Z,3.03
2018-12-24T10:59:18.948Z,3.24
2018-12-24T11:01:51.203Z,3.86
2018-12-24T11:04:25.486Z,5.26
2018-12-24T11:06:57.824Z,3.30
2018-12-24T11:13:27.037Z,2.43
2018-12-24T11:15:59.354Z,2.13
2018-12-24T11:18:33.462Z,2.03
2018-12-24T11:21:05.809Z,2.21
2018-12-24T11:23:39.936Z,1.95
2018-12-24T11:26:12.094Z,2.03
2018-12-24T11:28:44.271Z,2.02
2018-12-24T11:31:16.421Z,2.02
2018-12-24T11:33:48.672Z,1.81
2018-12-24T11:36:21.639Z,1.90
2018-12-24T11:38:53.946Z,1.70
2018-12-24T11:41:26.924Z,1.83
2018-12-24T11:43:59.123Z,1.91
2018-12-24T11:46:31.614Z,2.01
2018-12-24T11:49:03.907Z,1.72
2018-12-24T11:51:37.704Z,1.64
2018-12-24T11:54:11.056Z,1.70
2018-12-24T11:56:44.261Z,2.02
2018-12-24T11:59:17.987Z,2.05
2018-12-24T12:01:50.790Z,2.05
2018-12-24T12:04:23.563Z,2.07
2018-12-24T12:06:56.823Z,1.97
2018-12-24T12:09:30.528Z,2.34
2018-12-24T12:12:03.960Z,2.31
2018-12-24T12:14:37.851Z,1.91
2018-12-24T12:17:13.623Z,2.16
2018-12-24T12:19:46.151Z,2.22
2018-12-24T12:22:18.312Z,2.19
2018-12-24T12:24:50.483Z,2.02
2018-12-24T12:27:22.652Z,1.98
2018-12-24T12:29:54.920Z,2.00
2018-12-24T12:32:29.772Z,2.06
2018-12-24T12:35:01.996Z,2.17
2018-12-24T12:37:34.465Z,1.99
2018-12-24T12:40:07.731Z,2.23
2018-12-24T12:42:40.052Z,2.04
2018-12-24T12:45:12.315Z,2.09
2018-12-24T12:47:44.619Z,2.01
2018-12-24T12:50:16.892Z,2.19
2018-12-24T12:52:49.251Z,1.96
2018-12-24T12:55:21.601Z,1.84
2018-12-24T12:57:53.874Z,1.85
2018-12-24T13:00:26.082Z,1.93
2018-12-24T13:02:58.316Z,1.67
2018-12-24T13:05:30.469Z,1.68
2018-12-24T13:08:02.650Z,1.63
2018-12-24T13:10:34.880Z,1.49
2018-12-24T13:13:07.022Z,1.71
2018-12-24T13:15:40.853Z,1.59
2018-12-24T13:18:13.119Z,1.64
2018-12-24T13:20:45.332Z,1.62
2018-12-24T13:23:17.627Z,1.73
2018-12-24T13:25:49.977Z,1.61
2018-12-24T13:28:22.108Z,1.51
2018-12-24T13:30:54.272Z,1.59
2018-12-24T13:33:36.343Z,1.57
2018-12-24T13:36:08.254Z,1.48
2018-12-24T13:38:40.375Z,1.49
2018-12-24T13:41:12.574Z,1.71
2018-12-24T13:44:28.732Z,1.62
2018-12-24T13:47:00.452Z,1.76
2018-12-24T13:49:32.185Z,1.46
2018-12-24T13:52:03.809Z,1.42
2018-12-24T13:54:35.530Z,1.58
2018-12-24T13:57:06.508Z,1.60
2018-12-24T13:59:38.301Z,1.41
2018-12-24T14:02:10.039Z,1.24
2018-12-24T14:04:41.915Z,1.33
2018-12-24T14:07:21.772Z,1.43
2018-12-24T14:09:53.486Z,1.33
2018-12-24T14:12:26.023Z,1.39
2018-12-24T14:14:57.689Z,1.49
2018-12-24T14:17:29.542Z,1.20
2018-12-24T14:20:01.198Z,1.18
2018-12-24T14:22:33.065Z,1.35
2018-12-24T14:25:04.847Z,1.35
2018-12-24T14:27:36.563Z,1.33
2018-12-24T14:30:11.068Z,1.27
2018-12-24T14:32:44.666Z,1.26
2018-12-24T14:35:16.259Z,1.30
2018-12-24T14:37:47.945Z,1.18
2018-12-24T14:40:20.346Z,1.13
2018-12-24T14:42:51.963Z,1.16
2018-12-24T14:45:23.626Z,1.03
2018-12-24T14:47:55.553Z,0.95
2018-12-24T14:50:27.499Z,0.96
2018-12-24T14:52:59.596Z,0.94
2018-12-24T14:55:31.726Z,1.01
2018-12-24T14:58:04.577Z,1.01
2018-12-24T15:00:38.075Z,0.87
2018-12-24T15:03:11.251Z,0.89
2018-12-24T15:05:45.868Z,0.92
2018-12-24T15:08:19.122Z,0.95
2018-12-24T15:10:53.499Z,0.89
2018-12-24T15:13:26.244Z,0.82
2018-12-24T15:22:28.101Z,0.72
2018-12-24T15:23:01.039Z,0.73
2018-12-24T15:25:38.800Z,0.76
2018-12-24T15:28:11.173Z,0.82
2018-12-24T15:33:28.235Z,0.89
2018-12-24T15:35:59.809Z,0.95
2018-12-24T15:38:33.713Z,0.81
2018-12-24T15:41:07.496Z,0.78
2018-12-24T15:43:40.483Z,0.91
2018-12-24T15:46:52.431Z,0.88
2018-12-24T15:49:24.900Z,0.78
2018-12-24T15:51:58.627Z,0.92
2018-12-24T15:54:30.296Z,0.77
2018-12-24T15:57:03.267Z,1.10
2018-12-24T15:59:37.000Z,0.95
2018-12-24T16:02:08.788Z,1.13
2018-12-24T16:04:40.439Z,0.88
2018-12-24T16:07:12.752Z,0.92
2018-12-24T16:09:48.789Z,0.94
2018-12-24T16:12:26.866Z,1.01
2018-12-24T16:15:03.105Z,1.09
2018-12-24T16:17:34.843Z,0.99
2018-12-24T16:20:09.398Z,0.89
2018-12-24T16:22:41.130Z,1.10
2018-12-24T16:25:30.006Z,1.07
2018-12-24T16:28:01.818Z,0.99
2018-12-24T16:30:33.436Z,0.92
2018-12-24T16:33:05.135Z,0.95
2018-12-24T16:35:39.051Z,1.03
2018-12-24T16:38:12.013Z,1.01
2018-12-24T16:40:46.268Z,1.06
2018-12-24T16:43:18.830Z,0.93
2018-12-24T16:45:51.999Z,0.80
2018-12-24T16:48:36.399Z,1.07
2018-12-24T16:51:08.662Z,1.04
2018-12-24T16:53:40.859Z,1.11
2018-12-24T16:56:29.844Z,1.05
2018-12-24T16:59:08.839Z,0.93
2018-12-24T17:01:41.089Z,1.10
2018-12-24T17:04:14.415Z,1.10
2018-12-24T17:06:46.269Z,1.05
2018-12-24T17:09:19.247Z,1.07
2018-12-24T17:11:58.517Z,1.13
2018-12-24T17:14:47.380Z,1.00
2018-12-24T17:17:15.924Z,1.08
2018-12-24T17:19:48.614Z,1.10
2018-12-24T17:22:21.213Z,1.20
2018-12-24T17:24:52.956Z,1.21
2018-12-24T17:27:24.730Z,1.00
2018-12-24T17:30:11.709Z,1.16
2018-12-24T17:32:43.559Z,0.95
2018-12-24T17:36:21.472Z,1.03
2018-12-24T17:39:04.113Z,1.09
2018-12-24T17:41:41.932Z,1.00
2018-12-24T17:44:17.603Z,0.96
2018-12-24T17:46:53.739Z,1.00
2018-12-24T17:49:29.830Z,0.96
2018-12-24T17:52:04.577Z,0.89
2018-12-24T17:54:48.136Z,0.82
2018-12-24T17:57:25.680Z,0.95
2018-12-24T17:59:59.309Z,0.83
2018-12-24T18:02:39.699Z,0.80
2018-12-24T18:05:11.751Z,0.84
2018-12-24T18:07:43.468Z,0.79
2018-12-24T18:10:15.942Z,0.67
2018-12-24T18:12:59.450Z,0.52
2018-12-24T18:15:38.347Z,0.63
2018-12-24T18:18:12.375Z,0.53
2018-12-24T18:20:44.241Z,0.65
2018-12-24T18:23:16.119Z,0.68
2018-12-24T18:25:50.908Z,0.54
2018-12-24T18:28:43.410Z,0.60
2018-12-24T18:31:20.018Z,0.50
2018-12-24T18:33:54.893Z,0.55
2018-12-24T18:39:32.371Z,0.50
2018-12-24T18:42:05.048Z,0.79
2018-12-24T18:44:39.656Z,1.01
2018-12-24T18:47:12.186Z,0.81
2018-12-24T18:49:44.504Z,0.90
2018-12-24T18:52:16.205Z,1.13
2018-12-24T18:54:47.904Z,0.96
2018-12-24T19:01:14.253Z,0.73
2018-12-24T19:03:45.982Z,1.17
2018-12-24T19:06:17.847Z,0.80
2018-12-24T19:08:50.433Z,0.79
2018-12-24T19:11:22.076Z,0.73
2018-12-24T19:13:53.974Z,0.81
2018-12-24T19:16:25.750Z,0.75
2018-12-24T19:18:57.411Z,0.67
2018-12-24T19:21:29.180Z,0.81
2018-12-24T19:24:00.793Z,0.83
2018-12-24T19:26:32.630Z,0.73
2018-12-24T19:29:04.220Z,0.74
2018-12-24T19:31:35.930Z,0.67
2018-12-24T19:34:07.504Z,0.76
2018-12-24T19:36:40.225Z,0.72
2018-12-24T19:39:11.813Z,0.65
2018-12-24T19:41:43.399Z,0.75
2018-12-24T19:44:14.978Z,0.77
2018-12-24T19:46:46.554Z,0.70
2018-12-24T19:49:18.196Z,0.78
2018-12-24T19:51:49.752Z,0.70
2018-12-24T19:54:21.350Z,0.67
2018-12-24T19:56:52.919Z,0.68
2018-12-24T19:59:24.490Z,0.59
2018-12-24T20:01:56.122Z,0.73
2018-12-24T20:04:27.902Z,0.75
2018-12-24T20:06:59.602Z,0.55
2018-12-24T20:09:31.311Z,0.68
2018-12-24T20:12:06.745Z,0.74
2018-12-24T20:14:38.336Z,0.78
2018-12-24T20:17:09.910Z,0.79
2018-12-24T20:19:41.487Z,0.70
2018-12-24T20:22:13.158Z,0.87
2018-12-24T20:24:44.724Z,0.74
2018-12-24T20:27:16.306Z,0.84
2018-12-24T20:29:48.008Z,0.93
2018-12-24T20:32:19.557Z,0.75
2018-12-24T20:34:51.122Z,0.79
2018-12-24T20:37:22.751Z,0.80
2018-12-24T20:39:54.350Z,0.85
2018-12-24T20:42:25.926Z,0.86
2018-12-24T20:44:57.558Z,0.94
2018-12-24T20:47:29.134Z,0.98
2018-12-24T20:50:00.705Z,0.93
2018-12-24T20:52:32.293Z,0.99
2018-12-24T20:55:03.865Z,0.97
2018-12-24T20:57:35.543Z,0.96
2018-12-24T21:00:08.480Z,1.00
2018-12-24T21:02:40.351Z,1.01
2018-12-24T21:05:11.987Z,1.12
2018-12-24T21:07:44.579Z,1.06
2018-12-24T21:10:16.189Z,1.04
2018-12-24T21:12:48.178Z,0.98
2018-12-24T21:15:19.814Z,1.07
2018-12-24T21:17:51.508Z,1.12
2018-12-24T21:20:23.218Z,1.12
2018-12-24T21:22:54.888Z,1.08
2018-12-24T21:25:26.777Z,1.14
2018-12-24T21:27:58.762Z,1.16
2018-12-24T21:30:30.450Z,1.18
2018-12-24T21:33:02.755Z,1.17
2018-12-24T21:35:34.575Z,1.09
2018-12-24T21:38:08.287Z,1.10
2018-12-24T21:40:39.912Z,1.15
2018-12-24T21:43:11.507Z,1.16
2018-12-24T21:45:43.344Z,1.10
2018-12-24T21:48:14.949Z,1.12
2018-12-24T21:50:48.340Z,1.13
2018-12-24T21:53:20.012Z,1.16
2018-12-24T21:55:52.841Z,1.21
2018-12-24T21:58:24.671Z,1.29
2018-12-24T22:00:56.480Z,1.24
2018-12-24T22:03:28.248Z,1.18
2018-12-24T22:05:59.902Z,1.25
2018-12-24T22:08:31.668Z,1.13
2018-12-24T22:11:03.259Z,1.19
2018-12-24T22:13:35.054Z,1.16
2018-12-24T22:16:06.698Z,1.21
2018-12-24T22:18:38.360Z,1.18
2018-12-24T22:21:09.924Z,1.20
2018-12-24T22:23:41.472Z,1.22
2018-12-24T22:26:13.072Z,1.24
2018-12-24T22:28:44.649Z,1.27
2018-12-24T22:31:16.229Z,1.20
2018-12-24T22:33:47.829Z,1.22
2018-12-24T22:36:19.411Z,1.21
2018-12-24T22:38:51.009Z,1.18
2018-12-24T22:41:22.696Z,1.26
2018-12-24T22:43:54.297Z,1.25
2018-12-24T22:46:25.908Z,1.26
2018-12-24T22:48:57.554Z,1.29
2018-12-24T22:51:29.274Z,1.31
2018-12-24T22:54:00.927Z,1.35
2018-12-24T22:56:32.605Z,1.37
2018-12-24T22:59:04.183Z,1.29
2018-12-24T23:01:35.858Z,1.34
2018-12-24T23:04:07.576Z,1.39
2018-12-24T23:06:39.210Z,1.33
2018-12-24T23:09:10.875Z,1.26
2018-12-24T23:11:43.786Z,1.51
2018-12-24T23:14:15.354Z,1.39
2018-12-24T23:16:48.388Z,1.33
2018-12-24T23:19:20.235Z,1.42
2018-12-24T23:21:52.386Z,1.35
2018-12-24T23:24:24.408Z,1.25
2018-12-24T23:26:56.136Z,1.26
2018-12-24T23:29:27.778Z,1.23
2018-12-24T23:31:59.420Z,1.17
2018-12-24T23:34:30.997Z,1.22
2018-12-24T23:37:02.598Z,1.23
2018-12-24T23:39:37.901Z,1.23
2018-12-24T23:42:12.622Z,1.24
2018-12-24T23:44:52.681Z,1.12
2018-12-24T23:47:26.043Z,1.29
2018-12-24T23:50:00.146Z,1.24
2018-12-24T23:52:31.919Z,1.35
2018-12-24T23:55:03.495Z,1.20
2018-12-24T23:57:39.067Z,1.26
